DON PEDRO RESERVOIR (DNP)

Elevation: 830' · TUOLUMNE R basin · Operator: Turlock Irrigation District

Provisional data, subject to change.
Query executed Wednesday at 6:44:21   clock

Select a sensor type for a plot of data.
Note: Reservoir Flows are daily averages.

Earlier

Date RES ELE    STORAGE    RES CHG    TOC STO    ABV TOC    OUTFLOW    INFLOW    PPT INC   
 FEET   AF   AF   AF   AF   CFS   CFS   INCHES  
06/24/2014 731.34 1025800 -- 2030000 -- 2128 169 0.00
06/25/2014 730.77 1021900 -- 2018500 -996600 2445 491 0.00
06/26/2014 730.34 1018100 -- 2030000 -998400 1822 -127 0.00
06/27/2014 729.83 1014200 -- 2030000 -- 2158 214 0.00
06/28/2014 729.48 1011900 -- 2030000 -- 1704 539 0.00
06/29/2014 729.10 1008800 -- 2030000 -- 1689 140 0.00
06/30/2014 728.61 1005000 -- 2030000 -1001900 2172 240 0.00
07/01/2014 728.21 1001900 -- 2030000 -1028100 1780 239 0.00
07/02/2014 373.71 998120 -- 2030000 -1003080 2207 285 0.00
07/03/2014 727.19 994320 -- 1998300 -- 2116 199 0.00
07/04/2014 726.77 991280 -- 2030000 -- 1932 402 0.00
07/05/2014 726.32 987500 -- 2030000 -- 1859 -49 0.00
07/06/2014 725.93 984480 -- 2030000 -- 1734 212 0.00
07/07/2014 725.62 982220 -- 2030000 -1004580 1586 446 0.00
07/08/2014 725.10 978460 -- 2030000 -1005440 2027 132 0.00
07/09/2014 724.60 974710 -- 2030000 -1055290 2173 283 0.00
07/10/2014 724.05 970230 -- 2030000 -1007670 2292 31 0.00
07/11/2014 723.54 966500 -- 2030000 -- 2098 219 0.00
07/12/2014 723.15 964270 -- 2030000 -- 1777 652 0.00
07/13/2014 722.75 961300 -- 2030000 -1008200 1801 304 0.00
07/14/2014 722.34 957600 -- 2030000 -1072400 1835 -31 0.00
07/15/2014 722.03 955380 -- 2030000 -1008520 1580 463 0.00
07/16/2014 721.56 952430 -- 2030000 -1077570 1835 348 0.00
07/17/2014 720.95 948020 -- 2030000 -1081980 2155 -69 0.00
07/18/2014 720.44 943620 -- 2030000 -- 2178 -39 0.00
07/19/2014 719.91 939900 -- 2030000 -- 2294 418 0.00
07/20/2014 719.42 936260 -- 2030000 -- 2047 210 0.00
07/21/2014 718.96 933350 -- 2030000 -998250 1936 470 0.00
07/22/2014 -- -- -- -- -- -- -- --
07/23/2014 -- -- -- -- -- -- -- --

Later | Latest

Warning! This data is preliminary and subject to revision.

Download Data Now Download Data Now | Show DNP Map | Plot DNP Data | 1 Month DNP Data | Real-Time DNP Data | DNP Info